LRBS/BBU METAR and TAF weather

Enter ICAO airport designator
Station Type Date Time Source
LRBS METAR 2019/06/16 21:00 UTC NOAA

LRBS 162100Z VRB02KT CAVOK 22/19 Q1013 NOSIG


Station Type Date Time Source
LRBS Decoded METAR 2019/06/16 21:00 UTC NOAA

Bucuresti / Imh, Romania (LRBS) 44-30N 026-08E 91M
Jun 16, 2019 - 05:00 PM EDT / 2019.06.16 2100 UTC
Wind: Variable at 2 MPH (2 KT):0
Visibility: greater than 7 mile(s):0
Temperature: 71 F (22 C)
Dew Point: 66 F (19 C)
Relative Humidity: 83%
Pressure (altimeter): 29.91 in. Hg (1013 hPa)
ob: LRBS 162100Z VRB02KT CAVOK 22/19 Q1013 NOSIG
cycle: 21

Station Type Date Time Source
LRBS TAF 2019/06/16 18:33 UTC NOAA

TAF TAF LRBS 161700Z 1618/1718 VRB04KT 9999 SCT050CB
TEMPO 1618/1620 VRB15G25KT -TSRA
BECMG 1620/1622 NSC
BECMG 1710/1712 SCT045CB
TEMPO 1713/1717 VRB20G30KT 5000 TSRA

Example: see airport list